Time;durP1;ratioP1;P1;durP2;ratioP2;P2;SDS_P1;SDS_P2;PMS_P1;PMS_P2;Temp;Humidity;BMP_temperature;BMP_pressure;BME280_temperature;BME280_humidity;BME280_pressure;Samples;Min_cycle;Max_cycle;Signal;HPM_P1;HPM_P2
2022/01/07 00:00:19;;;;;;;16.35;8.75;;;0.10;79.70;;;-1.93;87.49;96327.75;4917238;29;20039;-68
2022/01/07 00:02:51;;;;;;;14.70;8.93;;;0.10;79.70;;;-1.95;87.66;96334.78;4917783;29;20118;-69
2022/01/07 00:05:17;;;;;;;17.40;8.20;;;0.10;79.70;;;-1.96;87.58;96335.69;4932026;29;20031;-69
2022/01/07 00:07:43;;;;;;;16.05;7.97;;;0.10;79.60;;;-1.99;87.19;96341.91;4917445;29;20037;-70
2022/01/07 00:10:10;;;;;;;12.20;8.25;;;0.10;79.60;;;-2.02;87.76;96339.53;4932533;29;20381;-68
2022/01/07 00:12:36;;;;;;;13.57;8.00;;;0.10;79.60;;;-2.03;87.70;96337.88;4933193;29;20050;-69
2022/01/07 00:15:04;;;;;;;18.33;8.65;;;0.10;79.70;;;-2.05;87.79;96333.75;4928783;29;20031;-69
2022/01/07 00:17:30;;;;;;;14.63;8.02;;;0.10;79.80;;;-2.06;87.82;96337.25;4898231;29;20039;-69
2022/01/07 00:19:56;;;;;;;15.52;8.75;;;0.10;79.90;;;-2.07;87.81;96330.44;4928737;28;20046;-69
2022/01/07 00:22:22;;;;;;;14.60;9.10;;;0.00;80.10;;;-2.09;87.77;96333.13;4948523;29;20049;-69
2022/01/07 00:24:48;;;;;;;14.05;8.75;;;0.00;80.20;;;-2.11;87.70;96335.00;4915834;29;20050;-69
2022/01/07 00:27:14;;;;;;;14.90;8.20;;;0.00;80.20;;;-2.12;88.35;96337.69;4948503;28;20137;-69
2022/01/07 00:29:39;;;;;;;16.52;9.40;;;0.00;80.30;;;-2.13;87.90;96346.34;4949307;28;20067;-67
2022/01/07 00:32:06;;;;;;;16.63;8.25;;;0.00;80.20;;;-2.17;88.26;96343.97;4916356;28;20118;-69
2022/01/07 00:34:31;;;;;;;14.90;9.15;;;0.00;80.20;;;-2.17;87.85;96340.56;4915542;29;20130;-69
2022/01/07 00:36:57;;;;;;;17.13;8.82;;;0.00;80.10;;;-2.17;88.14;96340.56;4932807;29;20035;-69
2022/01/07 00:39:23;;;;;;;15.10;8.75;;;0.00;79.90;;;-2.18;88.06;96344.09;4902471;29;20055;-68
2022/01/07 00:41:49;;;;;;;18.30;8.77;;;0.00;79.80;;;-2.20;87.62;96345.94;4919522;28;20039;-69
2022/01/07 00:44:14;;;;;;;17.65;9.23;;;0.00;79.80;;;-2.21;88.02;96346.88;4918882;29;20570;-68
2022/01/07 00:46:40;;;;;;;16.00;9.90;;;0.00;80.00;;;-2.23;88.19;96341.00;4935931;29;20850;-69
2022/01/07 00:49:06;;;;;;;16.85;9.60;;;-3276.70;79.90;;;-2.25;88.21;96338.53;4917786;29;20148;-71
2022/01/07 00:51:32;;;;;;;18.05;9.82;;;0.00;80.10;;;-2.26;88.03;96339.47;4948426;28;20082;-69
2022/01/07 00:53:57;;;;;;;17.92;10.02;;;0.00;80.20;;;-2.27;88.41;96334.38;4947557;28;20514;-69
2022/01/07 00:56:23;;;;;;;16.90;8.82;;;-3276.70;80.40;;;-2.29;88.49;96333.66;4931916;29;20054;-69
2022/01/07 00:58:49;;;;;;;19.27;10.50;;;-3276.70;80.50;;;-2.30;88.56;96327.69;4928901;29;20052;-69
2022/01/07 01:01:15;;;;;;;16.17;9.68;;;-3276.70;80.40;;;-2.30;88.45;96319.16;4948768;28;20067;-69
2022/01/07 01:03:40;;;;;;;18.48;9.93;;;-3276.70;80.30;;;-2.30;88.22;96325.13;4931197;29;20194;-70
2022/01/07 01:06:06;;;;;;;18.23;10.30;;;-3276.70;80.20;;;-2.31;88.41;96332.94;4911891;28;20035;-69
2022/01/07 01:08:32;;;;;;;17.15;10.13;;;-3276.70;80.20;;;-2.32;88.33;96321.81;4897517;29;20130;-69
2022/01/07 01:10:58;;;;;;;19.55;9.82;;;-3276.70;80.20;;;-2.33;88.12;96320.19;4913198;29;20050;-69
2022/01/07 01:13:23;;;;;;;22.02;10.05;;;-3276.60;80.10;;;-2.32;88.40;96310.69;4917114;28;20039;-69
2022/01/07 01:15:49;;;;;;;17.15;9.25;;;-3276.70;80.10;;;-2.32;88.10;96310.69;4916843;28;20039;-69
2022/01/07 01:18:15;;;;;;;20.55;9.95;;;-3276.70;80.10;;;-2.33;88.33;96298.75;4932763;29;20051;-69
2022/01/07 01:20:41;;;;;;;16.50;10.02;;;-3276.70;80.10;;;-2.33;88.03;96293.59;4933157;29;20582;-69
2022/01/07 01:23:06;;;;;;;17.52;9.82;;;-3276.70;80.20;;;-2.33;88.52;96288.44;4916580;29;20455;-70
2022/01/07 01:25:32;;;;;;;16.30;9.48;;;-3276.70;80.10;;;-2.35;88.52;96285.97;4920806;29;20483;-69
2022/01/07 01:27:58;;;;;;;18.95;9.52;;;-3276.60;80.10;;;-2.36;88.17;96278.34;4945935;28;20455;-68
2022/01/07 01:30:27;;;;;;;19.48;9.23;;;-3276.60;80.10;;;-2.38;88.61;96280.22;4947266;29;20403;-69
2022/01/07 01:32:53;;;;;;;18.73;8.80;;;-3276.60;80.20;;;-2.40;88.48;96279.50;4932250;29;20027;-69
2022/01/07 01:35:19;;;;;;;17.33;9.05;;;-3276.60;80.30;;;-2.42;88.66;96276.22;4911668;29;20074;-69
2022/01/07 01:37:47;;;;;;;16.40;9.73;;;-3276.50;80.60;;;-2.45;88.52;96274.66;4911891;28;20035;-68
2022/01/07 01:40:13;;;;;;;19.48;9.60;;;-3276.50;80.70;;;-2.45;88.87;96273.84;4927961;29;20031;-69
2022/01/07 01:42:38;;;;;;;15.50;8.82;;;-3276.50;80.60;;;-2.45;88.82;96274.66;4915766;28;20074;-69
2022/01/07 01:45:06;;;;;;;16.55;9.05;;;-3276.50;80.60;;;-2.45;88.57;96274.66;4914655;29;20039;-69
2022/01/07 01:47:32;;;;;;;15.50;9.07;;;-3276.50;80.50;;;-2.47;88.54;96269.63;4931434;29;20039;-69
2022/01/07 01:49:57;;;;;;;14.60;7.82;;;-3276.50;80.60;;;-2.46;88.97;96273.03;4906477;28;20050;-69
2022/01/07 01:52:23;;;;;;;15.80;9.15;;;-3276.50;80.40;;;-2.50;88.40;96268.97;4931077;29;20118;-69
2022/01/07 01:54:49;;;;;;;16.67;8.65;;;-3276.50;80.30;;;-2.50;88.54;96272.38;4930599;29;20122;-69
2022/01/07 01:57:15;;;;;;;14.18;8.50;;;-3276.50;80.20;;;-2.52;88.74;96269.09;4948509;28;20118;-69
2022/01/07 01:59:40;;;;;;;14.88;8.52;;;-3276.50;80.20;;;-2.54;88.77;96273.53;4946855;29;20806;-69
2022/01/07 02:02:06;;;;;;;15.57;8.45;;;-3276.50;80.30;;;-2.55;88.67;96271.06;4945879;28;20521;-69
2022/01/07 02:04:32;;;;;;;14.15;8.05;;;-3276.40;80.30;;;-2.59;88.46;96267.03;4946294;29;20435;-69
2022/01/07 02:06:58;;;;;;;12.27;7.85;;;-3276.30;80.40;;;-2.62;88.40;96262.94;4915485;29;20130;-69
2022/01/07 02:09:32;;;;;;;19.55;9.18;;;-3276.30;80.50;;;-2.62;88.37;96273.22;4927655;29;20137;-67
2022/01/07 02:11:57;;;;;;;16.85;8.02;;;-3276.40;80.40;;;-2.65;88.42;96273.44;4930199;28;20039;-67
2022/01/07 02:14:23;;;;;;;13.88;8.55;;;-3276.30;80.50;;;-2.68;88.34;96283.13;4927301;29;20213;-67
2022/01/07 02:16:49;;;;;;;16.35;9.88;;;-3276.30;80.20;;;-2.73;88.61;96283.41;4927876;29;20150;-67
2022/01/07 02:19:15;;;;;;;16.38;9.90;;;-3276.30;80.30;;;-2.75;88.68;96277.53;4932434;29;20059;-67
2022/01/07 02:21:40;;;;;;;18.75;9.68;;;-3276.20;80.40;;;-2.78;88.76;96273.44;4911984;29;20058;-67
2022/01/07 02:24:06;;;;;;;18.75;9.18;;;-3276.20;80.50;;;-2.78;88.73;96272.59;4929850;28;20127;-69
2022/01/07 02:26:33;;;;;;;19.27;9.23;;;-3276.30;80.70;;;-2.79;88.76;96281.25;4915073;29;20698;-69
2022/01/07 02:29:00;;;;;;;15.63;9.18;;;-3276.20;80.20;;;-2.82;88.46;96277.16;4915018;29;20706;-70
2022/01/07 02:31:25;;;;;;;15.18;9.07;;;-3276.20;80.10;;;-2.83;88.77;96275.50;4918698;29;20078;-69
2022/01/07 02:33:52;;;;;;;17.50;9.20;;;-3276.20;80.10;;;-2.84;88.07;96275.59;4895769;28;20067;-70
2022/01/07 02:36:17;;;;;;;15.35;9.30;;;-3276.10;80.10;;;-2.87;88.72;96268.09;4930665;29;20575;-69
2022/01/07 02:38:43;;;;;;;14.80;8.35;;;-3276.10;80.30;;;-2.90;88.72;96263.16;4915439;29;20046;-70
2022/01/07 02:41:09;;;;;;;18.65;10.23;;;-3276.10;80.20;;;-2.93;88.43;96258.22;4930480;29;20055;-69
2022/01/07 02:43:34;;;;;;;14.95;8.82;;;-3276.10;80.00;;;-2.94;88.27;96259.13;4911850;29;20042;-69
2022/01/07 02:46:00;;;;;;;16.40;9.55;;;-3276.10;79.90;;;-2.96;88.27;96255.81;4941644;28;20087;-69
2022/01/07 02:48:26;;;;;;;14.88;9.50;;;-3276.10;79.90;;;-2.98;88.32;96248.19;4920417;29;20027;-69
2022/01/07 02:50:52;;;;;;;21.08;9.43;;;-3276.10;79.90;;;-2.97;88.70;96246.44;4935133;29;20046;-69
2022/01/07 02:53:17;;;;;;;18.67;9.57;;;-3276.00;80.10;;;-2.98;88.46;96249.94;4918224;29;20043;-69
2022/01/07 02:55:44;;;;;;;16.83;8.73;;;-3276.00;80.40;;;-2.97;88.50;96251.59;4949613;29;20118;-69
2022/01/07 02:58:10;;;;;;;15.93;9.40;;;-3276.10;80.40;;;-2.99;88.64;96249.13;4933756;29;20133;-69
2022/01/07 03:00:36;;;;;;;17.08;8.88;;;-3276.00;80.10;;;-3.03;88.44;96241.72;4949568;29;20038;-69
2022/01/07 03:03:02;;;;;;;19.65;8.00;;;-3275.90;80.10;;;-3.08;88.87;96236.88;4933417;29;20036;-69
2022/01/07 03:05:28;;;;;;;13.93;7.72;;;-3275.90;80.70;;;-3.06;89.08;96231.63;4918071;29;20536;-70
2022/01/07 03:07:53;;;;;;;14.05;7.28;;;-3275.90;80.70;;;-3.06;88.83;96237.63;4930094;28;20040;-70
2022/01/07 03:10:23;;;;;;;16.23;7.65;;;-3275.90;80.70;;;-3.09;88.56;96228.34;4915012;29;20111;-69
2022/01/07 03:12:49;;;;;;;11.40;6.47;;;-3275.90;80.50;;;-3.15;88.57;96233.91;4928610;29;20387;-69
2022/01/07 03:15:15;;;;;;;13.63;7.15;;;-3275.70;80.70;;;-3.17;88.40;96238.34;4917129;29;20090;-69
2022/01/07 03:17:40;;;;;;;11.05;6.30;;;-3275.70;80.70;;;-3.17;88.69;96240.91;4918155;29;20035;-69
2022/01/07 03:20:08;;;;;;;12.23;6.55;;;-3275.80;80.60;;;-3.17;88.27;96248.63;4917244;28;20043;-69
2022/01/07 03:22:34;;;;;;;11.63;5.88;;;-3275.80;80.60;;;-3.18;88.61;96239.22;4933994;28;20039;-69
2022/01/07 03:25:00;;;;;;;10.65;6.28;;;-3275.80;80.50;;;-3.17;88.47;96238.34;4916997;29;20419;-69
2022/01/07 03:27:26;;;;;;;10.93;5.80;;;-3275.90;80.40;;;-3.18;88.54;96234.09;4919638;29;20388;-69
2022/01/07 03:29:51;;;;;;;10.80;6.13;;;-3275.90;80.30;;;-3.18;88.77;96223.81;4918378;28;20348;-70
2022/01/07 03:32:17;;;;;;;10.52;5.72;;;-3275.80;80.50;;;-3.18;88.75;96208.38;4936166;29;20042;-70
2022/01/07 03:34:43;;;;;;;14.18;5.95;;;-3275.80;80.50;;;-3.21;88.69;96203.44;4952652;28;20039;-69
2022/01/07 03:37:08;;;;;;;9.80;4.50;;;-3275.70;80.30;;;-3.23;88.43;96204.47;4932645;29;20032;-69
2022/01/07 03:39:34;;;;;;;7.97;4.50;;;-3275.70;80.20;;;-3.27;88.05;96209.00;4938182;29;20110;-69
2022/01/07 03:42:00;;;;;;;9.90;4.93;;;-3275.60;80.20;;;-3.30;88.16;96214.34;4919765;28;20041;-69
2022/01/07 03:44:26;;;;;;;8.15;4.05;;;-3275.60;80.30;;;-3.30;88.28;96219.47;4919307;29;20043;-69
2022/01/07 03:46:51;;;;;;;9.57;4.47;;;-3275.60;80.20;;;-3.27;88.16;96208.16;4935736;28;20047;-69
2022/01/07 03:49:17;;;;;;;10.02;4.18;;;-3275.60;80.00;;;-3.27;88.43;96213.31;4932280;29;20064;-69
2022/01/07 03:51:43;;;;;;;8.50;4.45;;;-3275.80;80.10;;;-3.26;88.48;96214.94;4917302;29;20043;-69
2022/01/07 03:54:08;;;;;;;7.95;4.28;;;-3275.80;79.90;;;-3.25;87.98;96222.56;4924092;29;20098;-69
2022/01/07 03:56:34;;;;;;;8.88;4.55;;;-3275.80;79.80;;;-3.26;88.22;96215.78;4920145;29;20047;-69
2022/01/07 03:59:00;;;;;;;9.25;4.57;;;-3275.80;79.90;;;-3.26;88.54;96209.81;4951384;28;20211;-69
2022/01/07 04:01:26;;;;;;;11.45;4.13;;;-3275.80;79.80;;;-3.26;88.14;96220.91;4935302;29;20131;-69
2022/01/07 04:03:52;;;;;;;7.97;4.47;;;-3275.70;79.60;;;-3.28;88.23;96217.63;4915872;28;20070;-69
2022/01/07 04:06:20;;;;;;;8.23;4.82;;;-3275.80;79.90;;;-3.28;87.96;96227.91;4918927;29;20031;-69
2022/01/07 04:08:49;;;;;;;6.90;4.50;;;-3275.80;79.70;;;-3.28;88.43;96233.06;4932628;29;20461;-69
2022/01/07 04:11:15;;;;;;;10.18;4.78;;;-3275.80;79.60;;;-3.29;88.42;96228.03;4933681;28;20070;-69
2022/01/07 04:13:41;;;;;;;9.80;4.93;;;-3275.70;79.70;;;-3.31;88.12;96225.56;4917067;29;20043;-69
2022/01/07 04:16:07;;;;;;;10.82;4.60;;;-3275.70;79.80;;;-3.32;88.35;96211.03;4933003;28;20158;-69
2022/01/07 04:18:33;;;;;;;8.90;5.20;;;-3275.70;80.00;;;-3.34;88.49;96212.06;4919778;29;20058;-69
2022/01/07 04:20:58;;;;;;;8.88;4.88;;;-3275.70;79.90;;;-3.35;88.15;96211.25;4919648;29;20059;-69
2022/01/07 04:23:24;;;;;;;11.90;5.30;;;-3275.70;80.00;;;-3.35;88.14;96216.41;4935108;29;20054;-69
2022/01/07 04:25:50;;;;;;;12.00;5.55;;;-3275.70;80.00;;;-3.35;88.20;96221.53;4931146;28;20127;-69
2022/01/07 04:28:16;;;;;;;12.05;5.72;;;-3275.70;80.10;;;-3.34;88.40;96227.50;4932026;29;20030;-69
2022/01/07 04:30:43;;;;;;;8.70;5.30;;;-3275.70;80.10;;;-3.35;88.46;96221.53;4950355;28;20057;-69
2022/01/07 04:33:12;;;;;;;10.00;5.80;;;-3275.70;79.90;;;-3.37;88.43;96223.38;4903978;29;20031;-70
2022/01/07 04:35:38;;;;;;;11.10;6.07;;;-3275.60;79.90;;;-3.39;88.32;96214.97;4919522;29;20087;-69
2022/01/07 04:38:05;;;;;;;10.00;6.30;;;-3275.60;80.40;;;-3.42;88.74;96221.09;4934811;28;20050;-69
2022/01/07 04:40:32;;;;;;;10.98;6.80;;;-3275.60;80.40;;;-3.44;88.84;96227.25;4916130;29;20075;-69
2022/01/07 04:42:58;;;;;;;15.75;6.20;;;-3275.60;80.50;;;-3.43;88.72;96228.91;4923882;29;20036;-69
2022/01/07 04:45:24;;;;;;;15.77;7.10;;;-3275.60;80.50;;;-3.44;88.80;96228.09;4940530;29;20032;-69
2022/01/07 04:47:50;;;;;;;12.27;7.38;;;-3275.60;80.40;;;-3.44;89.08;96217.81;4950176;28;20042;-69
2022/01/07 04:50:18;;;;;;;13.32;7.28;;;-3275.60;80.40;;;-3.44;88.73;96216.97;4919055;29;20036;-69
2022/01/07 04:52:44;;;;;;;12.35;6.72;;;-3275.60;80.30;;;-3.45;88.69;96225.63;4903381;29;20031;-69
2022/01/07 04:55:12;;;;;;;15.25;7.70;;;-3275.60;80.10;;;-3.45;88.75;96230.75;4950544;29;20359;-69
2022/01/07 04:57:38;;;;;;;13.50;6.78;;;-3275.60;80.10;;;-3.45;88.93;96230.75;4950385;29;20495;-69
2022/01/07 05:00:05;;;;;;;17.73;8.77;;;-3275.60;80.10;;;-3.45;88.84;96225.63;4918502;28;20050;-69
2022/01/07 05:02:31;;;;;;;15.52;8.95;;;-3275.60;80.10;;;-3.45;88.42;96220.47;4934714;29;20039;-69
2022/01/07 05:04:56;;;;;;;13.07;7.13;;;-3275.60;80.00;;;-3.47;88.33;96222.34;4934318;29;20044;-69
2022/01/07 05:07:22;;;;;;;9.98;6.22;;;-3275.60;79.70;;;-3.47;88.66;96227.47;4950010;29;20402;-69
2022/01/07 05:09:48;;;;;;;10.98;5.80;;;-3275.50;79.70;;;-3.52;88.14;96221.81;4914953;28;20579;-69
2022/01/07 05:12:14;;;;;;;13.18;6.38;;;-3275.50;79.40;;;-3.53;88.13;96228.69;4918104;29;20456;-69
2022/01/07 05:14:39;;;;;;;12.60;7.07;;;-3275.50;79.40;;;-3.56;88.36;96222.94;4954167;28;20066;-67
2022/01/07 05:17:05;;;;;;;26.95;11.35;;;-3275.50;79.60;;;-3.57;88.25;96222.13;4918723;29;20031;-67
2022/01/07 05:19:31;;;;;;;32.88;13.10;;;-3275.50;79.80;;;-3.57;88.49;96216.16;4934437;29;20090;-67
2022/01/07 05:21:57;;;;;;;32.90;14.77;;;-3275.50;80.00;;;-3.58;88.31;96224.78;4934197;28;20061;-67
2022/01/07 05:24:22;;;;;;;54.75;19.85;;;-3275.50;79.90;;;-3.58;88.59;96222.22;4950713;28;20066;-67
2022/01/07 05:26:48;;;;;;;44.00;17.10;;;-3275.50;79.90;;;-3.61;88.44;96219.84;4934304;29;20039;-67
2022/01/07 05:29:14;;;;;;;29.42;12.60;;;-3275.30;80.30;;;-3.65;88.54;96218.38;4933922;29;20070;-68
2022/01/07 05:31:39;;;;;;;24.77;11.10;;;-3275.30;80.80;;;-3.70;88.86;96226.38;4951453;28;20036;-67
2022/01/07 05:34:05;;;;;;;21.10;9.73;;;-3275.20;80.90;;;-3.74;88.59;96230.91;4949262;28;20110;-68
2022/01/07 05:36:31;;;;;;;18.33;8.32;;;-3275.20;81.20;;;-3.75;88.49;96233.59;4917779;29;20039;-68
2022/01/07 05:38:56;;;;;;;14.65;7.32;;;-3275.30;81.00;;;-3.76;88.81;96235.31;4950209;29;20424;-67
2022/01/07 05:41:22;;;;;;;12.10;7.45;;;-3275.20;80.90;;;-3.77;88.79;96225.16;4918146;29;20036;-68
2022/01/07 05:43:49;;;;;;;85.60;48.97;;;-3275.30;80.70;;;-3.76;89.10;96231.94;4937868;28;20573;-67
2022/01/07 05:46:15;;;;;;;108.63;59.13;;;-3275.30;80.40;;;-3.79;88.96;96227.81;4917748;29;20159;-67
2022/01/07 05:48:47;;;;;;;72.53;38.28;;;-3275.30;80.20;;;-3.78;89.13;96229.47;4915671;29;20066;-67
2022/01/07 05:51:13;;;;;;;24.77;15.00;;;-3275.30;80.50;;;-3.78;88.84;96224.31;4901434;29;20035;-66
2022/01/07 05:53:39;;;;;;;14.15;8.07;;;-3275.30;80.80;;;-3.79;89.14;96232.97;4913707;29;20035;-66
2022/01/07 05:56:04;;;;;;;26.40;15.20;;;-3275.20;80.60;;;-3.80;89.00;96230.50;4923912;28;20443;-66
2022/01/07 05:58:30;;;;;;;24.50;15.80;;;-3275.20;80.90;;;-3.81;89.23;96233.97;4901237;29;20036;-66
2022/01/07 06:00:56;;;;;;;17.95;11.13;;;-3275.30;80.80;;;-3.82;89.23;96235.72;4929399;29;20436;-66
2022/01/07 06:03:22;;;;;;;20.10;10.30;;;-3275.30;80.60;;;-3.83;89.16;96236.66;4940129;28;20546;-67
2022/01/07 06:05:48;;;;;;;14.70;10.15;;;-3275.30;80.70;;;-3.84;89.22;96229.03;4948076;28;20237;-66
2022/01/07 06:08:14;;;;;;;23.17;12.43;;;-3275.20;80.70;;;-3.88;89.51;96243.81;4916611;29;20031;-67
2022/01/07 06:10:40;;;;;;;20.48;13.55;;;-3275.20;81.00;;;-3.88;89.12;96243.81;4917014;29;20578;-67
2022/01/07 06:13:05;;;;;;;21.25;11.13;;;-3275.20;80.90;;;-3.89;89.09;96242.16;4933242;29;20046;-66
2022/01/07 06:15:31;;;;;;;21.00;12.20;;;-3275.10;80.70;;;-3.90;89.36;96243.06;4928923;29;20512;-70
2022/01/07 06:17:59;;;;;;;15.20;8.88;;;-3275.10;80.60;;;-3.92;89.21;96229.50;4945532;28;20090;-70
2022/01/07 06:20:25;;;;;;;12.50;7.70;;;-3275.00;81.30;;;-3.95;89.74;96229.72;4944458;29;20035;-70
2022/01/07 06:22:51;;;;;;;11.20;7.43;;;-3275.00;81.00;;;-3.98;89.46;96227.34;4927053;29;20628;-68
2022/01/07 06:25:16;;;;;;;11.68;6.45;;;-3275.00;81.10;;;-4.03;89.63;96235.34;4949637;28;20110;-72
2022/01/07 06:27:42;;;;;;;14.00;7.43;;;-3274.90;81.40;;;-4.07;89.36;96230.50;4920454;29;20094;-71
2022/01/07 06:30:08;;;;;;;13.43;6.53;;;-3274.80;81.60;;;-4.08;89.47;96237.34;4951744;28;20451;-71
2022/01/07 06:32:34;;;;;;;10.77;6.70;;;-3274.90;81.60;;;-4.09;89.66;96225.44;4920363;29;20145;-70
2022/01/07 06:35:00;;;;;;;12.48;6.75;;;-3275.00;81.60;;;-4.09;89.49;96237.44;4951809;29;20074;-70
2022/01/07 06:37:26;;;;;;;22.95;10.57;;;-3274.80;81.20;;;-4.12;89.81;96240.22;4934913;29;20118;-70
2022/01/07 06:39:52;;;;;;;73.63;39.08;;;-3274.80;81.70;;;-4.12;90.20;96230.75;4919860;28;20031;-69
2022/01/07 06:42:17;;;;;;;21.25;13.45;;;-3275.00;81.40;;;-4.11;89.94;96224.69;4918216;29;20074;-68
2022/01/07 06:44:44;;;;;;;14.32;7.47;;;-3275.00;81.20;;;-4.12;89.61;96225.63;4941420;28;20070;-68
2022/01/07 06:47:09;;;;;;;13.10;7.53;;;-3274.90;81.10;;;-4.12;89.27;96225.63;4932456;29;20130;-68
2022/01/07 06:49:35;;;;;;;16.73;7.35;;;-3274.90;81.10;;;-4.12;89.74;96227.38;4932339;29;20040;-68
2022/01/07 06:52:01;;;;;;;13.43;7.53;;;-3274.90;81.00;;;-4.18;89.46;96220.06;4919963;28;20464;-66
2022/01/07 06:54:27;;;;;;;14.38;7.40;;;-3274.70;81.30;;;-4.22;89.82;96224.56;4932189;29;20032;-67
2022/01/07 06:56:53;;;;;;;13.30;6.82;;;-3274.80;81.40;;;-4.25;89.85;96223.94;4951717;28;20031;-67
2022/01/07 06:59:19;;;;;;;14.80;7.32;;;-3274.70;81.50;;;-4.26;89.96;96217.16;4904031;29;20627;-68
2022/01/07 07:01:47;;;;;;;13.20;6.93;;;-3274.70;81.50;;;-4.24;90.11;96217.88;4916618;29;20040;-68
2022/01/07 07:04:13;;;;;;;11.02;6.40;;;-3274.70;82.00;;;-4.20;90.28;96216.75;4900966;29;20040;-70
2022/01/07 07:06:39;;;;;;;11.10;6.15;;;-3274.80;82.00;;;-4.17;90.07;96216.56;4923296;29;20153;-70
2022/01/07 07:09:05;;;;;;;13.00;7.00;;;-3274.90;81.60;;;-4.16;90.28;96224.16;4920357;29;20043;-70
2022/01/07 07:11:31;;;;;;;12.45;6.93;;;-3274.80;81.10;;;-4.17;89.89;96232.78;4919417;29;20039;-70
2022/01/07 07:13:56;;;;;;;13.88;7.55;;;-3274.80;81.20;;;-4.19;89.95;96238.94;4935567;28;20066;-71
2022/01/07 07:16:22;;;;;;;14.70;7.53;;;-3274.70;81.50;;;-4.22;89.88;96239.97;4934800;29;20090;-72
2022/01/07 07:18:48;;;;;;;14.77;7.35;;;-3274.80;81.40;;;-4.19;90.26;96238.94;4947991;28;20110;-74
2022/01/07 07:21:14;;;;;;;11.20;6.43;;;-3274.80;81.20;;;-4.17;90.14;96244.81;4903435;28;20047;-72
2022/01/07 07:23:39;;;;;;;8.93;5.90;;;-3274.90;81.00;;;-4.12;89.96;96237.63;4951452;29;20083;-71
2022/01/07 07:26:05;;;;;;;11.57;5.95;;;-3275.00;80.70;;;-4.09;89.82;96240.00;4934875;28;20035;-75
2022/01/07 07:28:33;;;;;;;16.90;9.90;;;-3275.00;80.30;;;-4.05;89.99;96236.34;4935582;29;20138;-73
2022/01/07 07:31:01;;;;;;;11.43;6.50;;;-3275.10;81.40;;;-4.02;90.24;96231.84;4935889;29;20028;-74
2022/01/07 07:38:39;;;;;;;11.68;6.60;;;-3275.10;79.70;;;-3.93;89.55;96229.59;4938279;29;20514;-75
2022/01/07 07:41:08;;;;;;;13.50;6.72;;;-3275.30;79.90;;;-3.91;89.55;96233.72;4919605;29;20038;-75
2022/01/07 07:43:34;;;;;;;10.43;5.88;;;-3275.30;79.30;;;-3.86;89.10;96225.72;4950142;29;20032;-67
2022/01/07 07:46:00;;;;;;;12.20;6.10;;;-3275.30;79.30;;;-3.82;88.95;96234.91;4918343;28;20515;-68
2022/01/07 07:48:26;;;;;;;10.85;6.55;;;-3275.40;79.10;;;-3.81;88.92;96229.66;4934675;29;20142;-69
2022/01/07 07:50:52;;;;;;;12.75;7.30;;;-3275.40;79.10;;;-3.76;89.29;96242.22;4935544;29;20023;-68
2022/01/07 07:53:18;;;;;;;12.38;6.05;;;-3275.50;79.00;;;-3.72;88.94;96239.34;4903141;29;20035;-71
2022/01/07 07:55:48;;;;;;;11.82;6.45;;;-3275.60;78.70;;;-3.66;88.68;96247.56;4903028;29;20389;-70
2022/01/07 07:58:13;;;;;;;11.80;6.70;;;-3275.60;78.50;;;-3.64;89.02;96236.28;4919439;28;20483;-69
2022/01/07 08:00:40;;;;;;;10.23;5.95;;;-3275.60;78.60;;;-3.61;89.21;96232.72;4931495;29;20040;-69
2022/01/07 08:03:06;;;;;;;8.90;5.60;;;-3275.60;78.40;;;-3.59;88.82;96233.44;4960186;28;20038;-69
2022/01/07 08:05:31;;;;;;;9.85;5.90;;;-3275.70;78.10;;;-3.56;88.49;96233.22;4950181;28;20035;-70
2022/01/07 08:08:02;;;;;;;9.02;6.43;;;-3275.70;77.90;;;-3.52;88.72;96234.66;4949960;28;20101;-69
2022/01/07 08:10:31;;;;;;;11.60;7.28;;;-3275.80;78.00;;;-3.47;88.87;96242.91;4950601;29;20099;-69
2022/01/07 08:13:27;;;;;;;11.88;6.55;;;-3275.90;78.00;;;-3.42;88.44;96230.56;4935006;29;20038;-69
2022/01/07 08:16:02;;;;;;;10.75;6.00;;;-3276.00;77.60;;;-3.40;88.10;96231.28;4925292;28;20549;-69
2022/01/07 08:18:33;;;;;;;9.45;5.05;;;-3276.00;77.50;;;-3.37;88.21;96227.72;4918832;29;20412;-69
2022/01/07 08:21:01;;;;;;;10.18;5.10;;;-3276.00;77.30;;;-3.37;88.15;96223.38;4923385;29;20035;-69
2022/01/07 08:23:27;;;;;;;9.93;5.00;;;-3275.90;76.90;;;-3.40;87.87;96224.38;4934696;29;20524;-69
2022/01/07 08:25:53;;;;;;;8.07;4.70;;;-3275.80;77.20;;;-3.40;88.11;96229.53;4930297;28;20043;-69
2022/01/07 08:28:19;;;;;;;10.65;5.00;;;-3275.80;77.20;;;-3.38;88.01;96226.88;4931160;29;20028;-72
2022/01/07 08:36:11;;;;;;;8.18;5.15;;;-3275.70;77.40;;;-3.36;87.73;96219.91;4935542;28;20090;-70
2022/01/07 08:38:37;;;;;;;10.60;5.65;;;-3275.80;77.50;;;-3.31;87.89;96228.13;4899766;29;20083;-70
2022/01/07 08:41:03;;;;;;;8.95;5.35;;;-3276.00;77.30;;;-3.21;87.73;96218.84;4924777;28;20070;-70
2022/01/07 08:43:29;;;;;;;8.07;5.25;;;-3276.20;76.60;;;-3.17;87.49;96212.63;4937920;29;20043;-70
2022/01/07 08:45:54;;;;;;;8.43;5.28;;;-3276.10;76.20;;;-3.09;87.74;96207.75;4902040;28;20135;-69
2022/01/07 08:48:20;;;;;;;9.88;5.32;;;-3276.20;76.10;;;-3.01;87.78;96211.56;4933381;29;20027;-70
2022/01/07 08:50:46;;;;;;;8.10;5.20;;;-3276.30;76.30;;;-2.92;87.34;96219.50;4952496;28;20059;-69
2022/01/07 08:53:12;;;;;;;8.18;5.40;;;-3276.50;76.00;;;-2.83;87.36;96213.72;4933946;29;20125;-70
2022/01/07 08:55:37;;;;;;;10.05;5.43;;;-3276.60;75.30;;;-2.77;86.94;96212.47;4933896;29;20043;-69
2022/01/07 08:58:03;;;;;;;8.30;5.30;;;-3276.50;75.50;;;-2.70;87.48;96213.72;4950550;28;20034;-69
2022/01/07 09:00:32;;;;;;;10.15;5.75;;;-3276.70;75.10;;;-2.64;86.65;96218.44;4949784;28;20039;-71
2022/01/07 09:03:00;;;;;;;8.25;5.03;;;0.00;74.80;;;-2.58;86.46;96207.72;4918587;29;20036;-70
2022/01/07 09:05:26;;;;;;;9.50;5.25;;;-3276.70;74.20;;;-2.57;86.22;96211.94;4921746;29;20643;-69
2022/01/07 09:07:52;;;;;;;8.80;5.30;;;-3276.70;74.60;;;-2.53;86.51;96210.78;4942434;28;20038;-66
2022/01/07 09:10:18;;;;;;;8.70;4.93;;;0.00;74.50;;;-2.48;86.15;96208.75;4947476;28;20114;-67
2022/01/07 09:12:44;;;;;;;8.63;4.78;;;0.10;74.20;;;-2.36;86.17;96206.22;4917626;29;20138;-68
2022/01/07 09:15:10;;;;;;;8.85;4.97;;;0.30;74.00;;;-2.23;85.92;96212.19;4917842;29;20023;-69
2022/01/07 09:17:36;;;;;;;12.02;4.78;;;0.60;73.60;;;-2.14;85.80;96206.38;4930076;29;20119;-68
2022/01/07 09:20:04;;;;;;;6.80;4.00;;;0.60;72.60;;;-2.07;85.81;96211.91;4905683;28;20531;-69
2022/01/07 09:22:29;;;;;;;6.78;4.65;;;0.60;72.20;;;-2.00;85.20;96202.81;4928403;29;20049;-69
2022/01/07 09:24:55;;;;;;;9.55;4.80;;;0.60;71.70;;;-1.97;85.34;96198.25;4929994;29;20040;-70
2022/01/07 09:27:21;;;;;;;7.60;4.60;;;0.60;71.70;;;-1.87;85.00;96194.09;4944656;29;20066;-70
2022/01/07 09:29:46;;;;;;;7.72;4.25;;;0.80;72.00;;;-1.70;85.00;96189.47;4949520;29;20356;-70
2022/01/07 09:32:12;;;;;;;7.80;4.68;;;1.20;71.00;;;-1.56;84.80;96192.69;4927029;29;20043;-69
2022/01/07 09:34:38;;;;;;;8.48;4.18;;;1.20;69.90;;;-1.51;84.57;96188.94;4917561;29;20031;-69
2022/01/07 09:37:04;;;;;;;6.63;4.22;;;1.20;70.10;;;-1.42;84.59;96188.25;4945899;28;20042;-66
2022/01/07 09:39:32;;;;;;;7.10;3.70;;;1.40;70.00;;;-1.37;83.50;96191.31;4946272;29;20488;-67
2022/01/07 09:41:59;;;;;;;7.03;3.60;;;1.30;68.70;;;-1.42;82.90;96186.50;4929531;28;20048;-65
2022/01/07 09:44:25;;;;;;;6.95;3.90;;;1.10;69.40;;;-1.39;83.38;96185.44;4931883;29;20043;-67
2022/01/07 09:46:51;;;;;;;5.95;3.83;;;1.20;68.70;;;-1.38;82.74;96187.91;4943262;29;20047;-66
2022/01/07 09:49:17;;;;;;;6.13;3.70;;;1.30;68.70;;;-1.36;83.02;96188.66;4900468;29;20035;-66
2022/01/07 09:51:43;;;;;;;22.05;12.63;;;1.40;69.00;;;-1.24;83.06;96192.88;4930218;29;20074;-66
2022/01/07 09:54:09;;;;;;;13.35;7.53;;;1.60;69.10;;;-1.12;82.74;96191.16;4946743;28;20039;-66
2022/01/07 09:56:35;;;;;;;9.05;5.13;;;1.90;67.80;;;-0.98;82.86;96192.69;4913400;29;20032;-69
2022/01/07 09:59:04;;;;;;;8.13;4.47;;;2.10;66.50;;;-0.91;82.18;96188.69;4933095;29;20537;-67
2022/01/07 10:01:31;;;;;;;6.95;4.30;;;2.00;66.50;;;-0.87;81.86;96184.97;4951564;28;20039;-67
2022/01/07 10:03:56;;;;;;;7.55;4.80;;;2.10;66.50;;;-0.79;81.81;96186.94;4919844;28;20059;-77